sensor_id;sensor_type;location;lat;lon;timestamp;temperature;humidity
5775;DHT22;2913;51.120;6.772;2023-05-10T00:01:25;14.60;99.90
5775;DHT22;2913;51.120;6.772;2023-05-10T00:03:53;14.60;99.90
5775;DHT22;2913;51.120;6.772;2023-05-10T00:06:19;14.60;99.90
5775;DHT22;2913;51.120;6.772;2023-05-10T00:08:45;14.60;99.90
5775;DHT22;2913;51.120;6.772;2023-05-10T00:11:17;14.60;99.90
5775;DHT22;2913;51.120;6.772;2023-05-10T00:13:43;14.60;99.90
5775;DHT22;2913;51.120;6.772;2023-05-10T00:18:40;14.60;99.90
5775;DHT22;2913;51.120;6.772;2023-05-10T00:21:06;14.60;99.90
5775;DHT22;2913;51.120;6.772;2023-05-10T00:23:34;14.60;99.90
5775;DHT22;2913;51.120;6.772;2023-05-10T00:25:59;14.50;99.90
5775;DHT22;2913;51.120;6.772;2023-05-10T00:28:27;14.60;99.90
5775;DHT22;2913;51.120;6.772;2023-05-10T00:30:58;14.60;99.90
5775;DHT22;2913;51.120;6.772;2023-05-10T00:33:24;14.50;99.90
5775;DHT22;2913;51.120;6.772;2023-05-10T00:35:51;14.60;99.90
5775;DHT22;2913;51.120;6.772;2023-05-10T00:38:17;14.60;99.90
5775;DHT22;2913;51.120;6.772;2023-05-10T00:43:09;14.50;99.90
5775;DHT22;2913;51.120;6.772;2023-05-10T00:45:35;14.60;99.90
5775;DHT22;2913;51.120;6.772;2023-05-10T00:48:02;14.50;99.90
5775;DHT22;2913;51.120;6.772;2023-05-10T00:50:29;14.60;99.90
5775;DHT22;2913;51.120;6.772;2023-05-10T00:52:56;14.60;99.90
5775;DHT22;2913;51.120;6.772;2023-05-10T00:55:23;14.50;99.90
5775;DHT22;2913;51.120;6.772;2023-05-10T00:57:49;14.60;99.90
5775;DHT22;2913;51.120;6.772;2023-05-10T01:00:15;14.50;99.90
5775;DHT22;2913;51.120;6.772;2023-05-10T01:02:45;14.50;99.90
5775;DHT22;2913;51.120;6.772;2023-05-10T01:05:12;14.40;99.90
5775;DHT22;2913;51.120;6.772;2023-05-10T01:07:38;14.40;99.90
5775;DHT22;2913;51.120;6.772;2023-05-10T01:15:12;14.40;99.90
5775;DHT22;2913;51.120;6.772;2023-05-10T01:17:43;14.30;99.90
5775;DHT22;2913;51.120;6.772;2023-05-10T01:20:12;14.40;99.90
5775;DHT22;2913;51.120;6.772;2023-05-10T01:26:01;14.30;99.90
5775;DHT22;2913;51.120;6.772;2023-05-10T01:31:39;14.30;99.90
5775;DHT22;2913;51.120;6.772;2023-05-10T01:34:20;14.30;99.90
5775;DHT22;2913;51.120;6.772;2023-05-10T01:36:56;14.20;99.90
5775;DHT22;2913;51.120;6.772;2023-05-10T01:39:32;14.30;99.90
5775;DHT22;2913;51.120;6.772;2023-05-10T01:42:08;14.30;99.90
5775;DHT22;2913;51.120;6.772;2023-05-10T01:45:02;14.30;99.90
5775;DHT22;2913;51.120;6.772;2023-05-10T01:50:03;14.20;99.90
5775;DHT22;2913;51.120;6.772;2023-05-10T01:52:38;14.30;99.90
5775;DHT22;2913;51.120;6.772;2023-05-10T01:55:09;14.30;99.90
5775;DHT22;2913;51.120;6.772;2023-05-10T01:57:39;14.20;99.90
5775;DHT22;2913;51.120;6.772;2023-05-10T02:00:09;14.20;99.90
5775;DHT22;2913;51.120;6.772;2023-05-10T02:02:40;14.20;99.90
5775;DHT22;2913;51.120;6.772;2023-05-10T02:05:08;14.20;99.90
5775;DHT22;2913;51.120;6.772;2023-05-10T02:07:36;14.20;99.90
5775;DHT22;2913;51.120;6.772;2023-05-10T02:10:06;14.20;99.90
5775;DHT22;2913;51.120;6.772;2023-05-10T02:12:37;14.20;99.90
5775;DHT22;2913;51.120;6.772;2023-05-10T02:15:11;14.20;99.90
5775;DHT22;2913;51.120;6.772;2023-05-10T02:17:41;14.20;99.90
5775;DHT22;2913;51.120;6.772;2023-05-10T02:20:08;14.20;99.90
5775;DHT22;2913;51.120;6.772;2023-05-10T02:22:36;14.20;99.90
5775;DHT22;2913;51.120;6.772;2023-05-10T02:25:03;14.20;99.90
5775;DHT22;2913;51.120;6.772;2023-05-10T02:27:33;14.30;99.90
5775;DHT22;2913;51.120;6.772;2023-05-10T02:30:00;14.20;99.90
5775;DHT22;2913;51.120;6.772;2023-05-10T02:32:29;14.20;99.90
5775;DHT22;2913;51.120;6.772;2023-05-10T02:34:55;14.20;99.90
5775;DHT22;2913;51.120;6.772;2023-05-10T02:37:22;14.30;99.90
5775;DHT22;2913;51.120;6.772;2023-05-10T02:39:52;14.30;99.90
5775;DHT22;2913;51.120;6.772;2023-05-10T02:42:23;14.20;99.90
5775;DHT22;2913;51.120;6.772;2023-05-10T02:44:54;14.20;99.90
5775;DHT22;2913;51.120;6.772;2023-05-10T02:47:21;14.20;99.90
5775;DHT22;2913;51.120;6.772;2023-05-10T02:49:47;14.30;99.90
5775;DHT22;2913;51.120;6.772;2023-05-10T02:52:15;14.20;99.90
5775;DHT22;2913;51.120;6.772;2023-05-10T02:54:45;14.20;99.90
5775;DHT22;2913;51.120;6.772;2023-05-10T02:57:16;14.30;99.90
5775;DHT22;2913;51.120;6.772;2023-05-10T03:02:12;14.30;99.90
5775;DHT22;2913;51.120;6.772;2023-05-10T03:04:40;14.30;99.90
5775;DHT22;2913;51.120;6.772;2023-05-10T03:07:06;14.30;99.90
5775;DHT22;2913;51.120;6.772;2023-05-10T03:09:32;14.20;99.90
5775;DHT22;2913;51.120;6.772;2023-05-10T03:12:10;14.30;99.90
5775;DHT22;2913;51.120;6.772;2023-05-10T03:14:49;14.20;99.90
5775;DHT22;2913;51.120;6.772;2023-05-10T03:17:31;14.20;99.90
5775;DHT22;2913;51.120;6.772;2023-05-10T03:20:06;14.20;99.90
5775;DHT22;2913;51.120;6.772;2023-05-10T03:22:41;14.20;99.90
5775;DHT22;2913;51.120;6.772;2023-05-10T03:25:11;14.30;99.90
5775;DHT22;2913;51.120;6.772;2023-05-10T03:27:40;14.20;99.90
5775;DHT22;2913;51.120;6.772;2023-05-10T03:30:11;14.20;99.90
5775;DHT22;2913;51.120;6.772;2023-05-10T03:32:38;14.30;99.90
5775;DHT22;2913;51.120;6.772;2023-05-10T03:35:10;14.20;99.90
5775;DHT22;2913;51.120;6.772;2023-05-10T03:37:37;14.10;99.90
5775;DHT22;2913;51.120;6.772;2023-05-10T03:40:03;14.30;99.90
5775;DHT22;2913;51.120;6.772;2023-05-10T03:42:29;14.20;99.90
5775;DHT22;2913;51.120;6.772;2023-05-10T03:44:55;14.20;99.90
5775;DHT22;2913;51.120;6.772;2023-05-10T03:47:20;14.20;99.90
5775;DHT22;2913;51.120;6.772;2023-05-10T03:49:48;14.30;99.90
5775;DHT22;2913;51.120;6.772;2023-05-10T03:52:16;14.30;99.90
5775;DHT22;2913;51.120;6.772;2023-05-10T03:54:44;14.30;99.90
5775;DHT22;2913;51.120;6.772;2023-05-10T03:57:09;14.20;99.90
5775;DHT22;2913;51.120;6.772;2023-05-10T03:59:35;14.30;99.90
5775;DHT22;2913;51.120;6.772;2023-05-10T04:02:00;14.30;99.90
5775;DHT22;2913;51.120;6.772;2023-05-10T04:04:31;14.30;99.90
5775;DHT22;2913;51.120;6.772;2023-05-10T04:06:56;14.30;99.90
5775;DHT22;2913;51.120;6.772;2023-05-10T04:09:24;14.30;99.90
5775;DHT22;2913;51.120;6.772;2023-05-10T04:11:50;14.30;99.90
5775;DHT22;2913;51.120;6.772;2023-05-10T04:14:16;14.30;99.90
5775;DHT22;2913;51.120;6.772;2023-05-10T04:16:42;14.30;99.90
5775;DHT22;2913;51.120;6.772;2023-05-10T04:19:07;14.30;99.90
5775;DHT22;2913;51.120;6.772;2023-05-10T04:21:33;14.30;99.90
5775;DHT22;2913;51.120;6.772;2023-05-10T04:23:58;14.30;99.90
5775;DHT22;2913;51.120;6.772;2023-05-10T04:26:26;14.40;99.90
5775;DHT22;2913;51.120;6.772;2023-05-10T04:28:54;14.30;99.90
5775;DHT22;2913;51.120;6.772;2023-05-10T04:31:20;14.30;99.90
5775;DHT22;2913;51.120;6.772;2023-05-10T04:33:45;14.40;99.90
5775;DHT22;2913;51.120;6.772;2023-05-10T04:36:13;14.30;99.90
5775;DHT22;2913;51.120;6.772;2023-05-10T04:38:39;14.30;99.90
5775;DHT22;2913;51.120;6.772;2023-05-10T04:41:09;14.30;99.90
5775;DHT22;2913;51.120;6.772;2023-05-10T04:48:30;14.30;99.90
5775;DHT22;2913;51.120;6.772;2023-05-10T04:50:56;14.30;99.90
5775;DHT22;2913;51.120;6.772;2023-05-10T04:53:22;14.40;99.90
5775;DHT22;2913;51.120;6.772;2023-05-10T04:58:14;14.30;99.90
5775;DHT22;2913;51.120;6.772;2023-05-10T05:00:40;14.30;99.90
5775;DHT22;2913;51.120;6.772;2023-05-10T05:03:05;14.30;99.90
5775;DHT22;2913;51.120;6.772;2023-05-10T05:05:33;14.30;99.90
5775;DHT22;2913;51.120;6.772;2023-05-10T05:08:02;14.30;99.90
5775;DHT22;2913;51.120;6.772;2023-05-10T05:10:28;14.50;99.90
5775;DHT22;2913;51.120;6.772;2023-05-10T05:12:53;14.40;99.90
5775;DHT22;2913;51.120;6.772;2023-05-10T05:15:19;14.40;99.90
5775;DHT22;2913;51.120;6.772;2023-05-10T05:17:47;14.50;99.90
5775;DHT22;2913;51.120;6.772;2023-05-10T05:20:15;14.40;99.90
5775;DHT22;2913;51.120;6.772;2023-05-10T05:22:44;14.40;99.90
5775;DHT22;2913;51.120;6.772;2023-05-10T05:25:10;14.40;99.90
5775;DHT22;2913;51.120;6.772;2023-05-10T05:27:37;14.40;99.90
5775;DHT22;2913;51.120;6.772;2023-05-10T05:30:02;14.40;99.90
5775;DHT22;2913;51.120;6.772;2023-05-10T05:32:29;14.30;99.90
5775;DHT22;2913;51.120;6.772;2023-05-10T05:34:55;14.50;99.90
5775;DHT22;2913;51.120;6.772;2023-05-10T05:37:23;14.40;99.90
5775;DHT22;2913;51.120;6.772;2023-05-10T05:39:49;14.40;99.90
5775;DHT22;2913;51.120;6.772;2023-05-10T05:42:17;14.50;99.90
5775;DHT22;2913;51.120;6.772;2023-05-10T05:44:46;14.50;99.90
5775;DHT22;2913;51.120;6.772;2023-05-10T05:47:12;14.40;99.90
5775;DHT22;2913;51.120;6.772;2023-05-10T05:49:37;14.40;99.90
5775;DHT22;2913;51.120;6.772;2023-05-10T05:52:04;14.50;99.90
5775;DHT22;2913;51.120;6.772;2023-05-10T05:54:30;14.50;99.90
5775;DHT22;2913;51.120;6.772;2023-05-10T05:56:57;14.50;99.90
5775;DHT22;2913;51.120;6.772;2023-05-10T05:59:23;14.50;99.90
5775;DHT22;2913;51.120;6.772;2023-05-10T06:04:14;14.50;99.90
5775;DHT22;2913;51.120;6.772;2023-05-10T06:06:40;14.50;99.90
5775;DHT22;2913;51.120;6.772;2023-05-10T06:09:06;14.40;99.90
5775;DHT22;2913;51.120;6.772;2023-05-10T06:11:31;14.40;99.90
5775;DHT22;2913;51.120;6.772;2023-05-10T06:14:00;14.30;99.90
5775;DHT22;2913;51.120;6.772;2023-05-10T06:16:29;14.30;99.90
5775;DHT22;2913;51.120;6.772;2023-05-10T06:18:55;14.20;99.90
5775;DHT22;2913;51.120;6.772;2023-05-10T06:21:25;14.30;99.90
5775;DHT22;2913;51.120;6.772;2023-05-10T06:23:51;14.30;99.90
5775;DHT22;2913;51.120;6.772;2023-05-10T06:26:16;14.30;99.90
5775;DHT22;2913;51.120;6.772;2023-05-10T06:28:42;14.20;99.90
5775;DHT22;2913;51.120;6.772;2023-05-10T06:31:10;14.20;99.90
5775;DHT22;2913;51.120;6.772;2023-05-10T06:33:39;14.20;99.90
5775;DHT22;2913;51.120;6.772;2023-05-10T06:41:00;14.30;99.90
5775;DHT22;2913;51.120;6.772;2023-05-10T06:45:54;14.50;99.90
5775;DHT22;2913;51.120;6.772;2023-05-10T06:48:20;14.70;99.90
5775;DHT22;2913;51.120;6.772;2023-05-10T06:50:47;14.70;99.90
5775;DHT22;2913;51.120;6.772;2023-05-10T06:53:15;14.80;99.90
5775;DHT22;2913;51.120;6.772;2023-05-10T06:55:41;14.80;99.90
5775;DHT22;2913;51.120;6.772;2023-05-10T06:58:07;14.90;99.90
5775;DHT22;2913;51.120;6.772;2023-05-10T07:00:32;14.40;99.90
5775;DHT22;2913;51.120;6.772;2023-05-10T07:03:00;15.00;99.90
5775;DHT22;2913;51.120;6.772;2023-05-10T07:05:26;15.00;99.90
5775;DHT22;2913;51.120;6.772;2023-05-10T07:07:54;15.00;99.90
5775;DHT22;2913;51.120;6.772;2023-05-10T07:10:20;15.00;99.90
5775;DHT22;2913;51.120;6.772;2023-05-10T07:12:45;15.00;99.90
5775;DHT22;2913;51.120;6.772;2023-05-10T07:15:13;15.00;99.90
5775;DHT22;2913;51.120;6.772;2023-05-10T07:17:39;15.00;99.90
5775;DHT22;2913;51.120;6.772;2023-05-10T07:20:05;15.10;99.90
5775;DHT22;2913;51.120;6.772;2023-05-10T07:22:33;15.10;99.90
5775;DHT22;2913;51.120;6.772;2023-05-10T07:24:59;15.20;99.90
5775;DHT22;2913;51.120;6.772;2023-05-10T07:27:24;15.30;99.90
5775;DHT22;2913;51.120;6.772;2023-05-10T07:29:50;15.30;99.90
5775;DHT22;2913;51.120;6.772;2023-05-10T07:32:16;15.80;99.90
5775;DHT22;2913;51.120;6.772;2023-05-10T07:34:41;16.00;99.90
5775;DHT22;2913;51.120;6.772;2023-05-10T07:37:07;15.90;99.90
5775;DHT22;2913;51.120;6.772;2023-05-10T07:39:33;15.90;99.90
5775;DHT22;2913;51.120;6.772;2023-05-10T07:41:58;15.90;99.90
5775;DHT22;2913;51.120;6.772;2023-05-10T07:44:28;15.90;99.90
5775;DHT22;2913;51.120;6.772;2023-05-10T07:46:56;15.80;99.90
5775;DHT22;2913;51.120;6.772;2023-05-10T07:49:22;15.70;99.90
5775;DHT22;2913;51.120;6.772;2023-05-10T07:51:49;15.50;99.90
5775;DHT22;2913;51.120;6.772;2023-05-10T07:54:15;15.60;99.90
5775;DHT22;2913;51.120;6.772;2023-05-10T07:56:41;15.60;99.90
5775;DHT22;2913;51.120;6.772;2023-05-10T07:59:17;15.60;99.90
5775;DHT22;2913;51.120;6.772;2023-05-10T08:01:43;15.60;99.90
5775;DHT22;2913;51.120;6.772;2023-05-10T08:04:09;15.60;99.90
5775;DHT22;2913;51.120;6.772;2023-05-10T08:06:37;15.50;99.90
5775;DHT22;2913;51.120;6.772;2023-05-10T08:09:02;15.60;99.90
5775;DHT22;2913;51.120;6.772;2023-05-10T08:11:28;15.60;99.90
5775;DHT22;2913;51.120;6.772;2023-05-10T08:13:54;15.60;99.90
5775;DHT22;2913;51.120;6.772;2023-05-10T08:16:22;15.70;99.90
5775;DHT22;2913;51.120;6.772;2023-05-10T08:18:48;15.70;99.90
5775;DHT22;2913;51.120;6.772;2023-05-10T08:21:18;15.90;99.90
5775;DHT22;2913;51.120;6.772;2023-05-10T08:23:44;15.90;99.90
5775;DHT22;2913;51.120;6.772;2023-05-10T08:26:10;16.10;99.90
5775;DHT22;2913;51.120;6.772;2023-05-10T08:28:36;16.30;99.90
5775;DHT22;2913;51.120;6.772;2023-05-10T08:31:04;16.50;99.90
5775;DHT22;2913;51.120;6.772;2023-05-10T08:33:32;16.70;99.90
5775;DHT22;2913;51.120;6.772;2023-05-10T08:35:58;16.70;99.90
5775;DHT22;2913;51.120;6.772;2023-05-10T08:38:24;16.90;99.90
5775;DHT22;2913;51.120;6.772;2023-05-10T08:40:54;16.80;99.90
5775;DHT22;2913;51.120;6.772;2023-05-10T08:43:28;16.80;99.90
5775;DHT22;2913;51.120;6.772;2023-05-10T08:46:02;16.70;99.90
5775;DHT22;2913;51.120;6.772;2023-05-10T08:48:32;16.60;99.90
5775;DHT22;2913;51.120;6.772;2023-05-10T08:51:00;16.40;99.90
5775;DHT22;2913;51.120;6.772;2023-05-10T08:53:28;16.40;99.90
5775;DHT22;2913;51.120;6.772;2023-05-10T08:55:56;16.30;99.90
5775;DHT22;2913;51.120;6.772;2023-05-10T08:58:25;16.30;99.90
5775;DHT22;2913;51.120;6.772;2023-05-10T09:00:50;16.20;99.90
5775;DHT22;2913;51.120;6.772;2023-05-10T09:03:16;16.20;99.90
5775;DHT22;2913;51.120;6.772;2023-05-10T09:05:43;16.10;99.90
5775;DHT22;2913;51.120;6.772;2023-05-10T09:08:12;16.10;99.90
5775;DHT22;2913;51.120;6.772;2023-05-10T09:10:48;16.20;99.90
5775;DHT22;2913;51.120;6.772;2023-05-10T09:13:14;16.10;99.90
5775;DHT22;2913;51.120;6.772;2023-05-10T09:15:40;16.00;99.90
5775;DHT22;2913;51.120;6.772;2023-05-10T09:18:06;15.90;99.90
5775;DHT22;2913;51.120;6.772;2023-05-10T09:20:32;15.90;99.90
5775;DHT22;2913;51.120;6.772;2023-05-10T09:23:00;15.90;99.90
5775;DHT22;2913;51.120;6.772;2023-05-10T09:25:25;15.90;99.90
5775;DHT22;2913;51.120;6.772;2023-05-10T09:27:52;15.80;99.90
5775;DHT22;2913;51.120;6.772;2023-05-10T09:32:50;15.80;99.90
5775;DHT22;2913;51.120;6.772;2023-05-10T09:35:24;15.80;99.90
5775;DHT22;2913;51.120;6.772;2023-05-10T09:37:52;15.70;99.90
5775;DHT22;2913;51.120;6.772;2023-05-10T09:40:21;15.70;99.90
5775;DHT22;2913;51.120;6.772;2023-05-10T09:45:26;15.80;99.90
5775;DHT22;2913;51.120;6.772;2023-05-10T09:47:52;16.00;99.90
5775;DHT22;2913;51.120;6.772;2023-05-10T09:50:19;16.10;99.90
5775;DHT22;2913;51.120;6.772;2023-05-10T09:55:23;16.30;99.90
5775;DHT22;2913;51.120;6.772;2023-05-10T09:57:58;16.30;99.90
5775;DHT22;2913;51.120;6.772;2023-05-10T10:00:27;16.50;99.90
5775;DHT22;2913;51.120;6.772;2023-05-10T10:02:59;16.50;99.90
5775;DHT22;2913;51.120;6.772;2023-05-10T10:05:29;16.50;99.90
5775;DHT22;2913;51.120;6.772;2023-05-10T10:07:57;16.50;99.90
5775;DHT22;2913;51.120;6.772;2023-05-10T10:10:26;16.60;99.90
5775;DHT22;2913;51.120;6.772;2023-05-10T10:12:53;16.40;99.90
5775;DHT22;2913;51.120;6.772;2023-05-10T10:15:22;16.40;99.90
5775;DHT22;2913;51.120;6.772;2023-05-10T10:17:51;16.60;99.90
5775;DHT22;2913;51.120;6.772;2023-05-10T10:20:18;16.70;99.90
5775;DHT22;2913;51.120;6.772;2023-05-10T10:22:45;16.70;99.90
5775;DHT22;2913;51.120;6.772;2023-05-10T10:25:12;16.90;99.90
5775;DHT22;2913;51.120;6.772;2023-05-10T10:35:31;17.40;99.90
5775;DHT22;2913;51.120;6.772;2023-05-10T10:37:57;17.50;99.90
5775;DHT22;2913;51.120;6.772;2023-05-10T10:40:30;17.50;99.90
5775;DHT22;2913;51.120;6.772;2023-05-10T10:48:40;17.40;99.90
5775;DHT22;2913;51.120;6.772;2023-05-10T10:51:08;17.40;99.90
5775;DHT22;2913;51.120;6.772;2023-05-10T10:53:34;17.60;99.90
5775;DHT22;2913;51.120;6.772;2023-05-10T10:56:09;17.70;99.90
5775;DHT22;2913;51.120;6.772;2023-05-10T10:58:37;17.60;99.90
5775;DHT22;2913;51.120;6.772;2023-05-10T11:01:14;17.70;99.90
5775;DHT22;2913;51.120;6.772;2023-05-10T11:06:32;17.60;99.90
5775;DHT22;2913;51.120;6.772;2023-05-10T11:11:32;17.50;99.90
5775;DHT22;2913;51.120;6.772;2023-05-10T11:14:04;17.60;99.90
5775;DHT22;2913;51.120;6.772;2023-05-10T11:16:40;17.70;99.90
5775;DHT22;2913;51.120;6.772;2023-05-10T11:19:10;17.80;99.90
5775;DHT22;2913;51.120;6.772;2023-05-10T11:21:51;17.90;99.90
5775;DHT22;2913;51.120;6.772;2023-05-10T11:24:39;18.10;99.90
5775;DHT22;2913;51.120;6.772;2023-05-10T11:27:05;18.00;99.90
5775;DHT22;2913;51.120;6.772;2023-05-10T11:29:33;18.10;99.90
5775;DHT22;2913;51.120;6.772;2023-05-10T11:32:01;17.90;99.90
5775;DHT22;2913;51.120;6.772;2023-05-10T11:34:33;17.80;99.90
5775;DHT22;2913;51.120;6.772;2023-05-10T11:36:59;17.60;99.90
5775;DHT22;2913;51.120;6.772;2023-05-10T11:39:30;17.60;99.90
5775;DHT22;2913;51.120;6.772;2023-05-10T11:41:57;17.50;99.90
5775;DHT22;2913;51.120;6.772;2023-05-10T11:44:23;17.20;99.90
5775;DHT22;2913;51.120;6.772;2023-05-10T11:46:51;16.90;99.90
5775;DHT22;2913;51.120;6.772;2023-05-10T11:49:17;16.90;99.90
5775;DHT22;2913;51.120;6.772;2023-05-10T11:51:43;16.90;99.90
5775;DHT22;2913;51.120;6.772;2023-05-10T11:54:10;16.90;99.90
5775;DHT22;2913;51.120;6.772;2023-05-10T11:56:37;17.00;99.90
5775;DHT22;2913;51.120;6.772;2023-05-10T11:59:03;17.00;99.90
5775;DHT22;2913;51.120;6.772;2023-05-10T12:01:33;17.20;99.90
5775;DHT22;2913;51.120;6.772;2023-05-10T12:03:59;17.20;99.90
5775;DHT22;2913;51.120;6.772;2023-05-10T12:06:32;17.40;99.90
5775;DHT22;2913;51.120;6.772;2023-05-10T12:09:08;17.40;99.90
5775;DHT22;2913;51.120;6.772;2023-05-10T12:11:40;17.30;99.90
5775;DHT22;2913;51.120;6.772;2023-05-10T12:14:05;17.40;99.90
5775;DHT22;2913;51.120;6.772;2023-05-10T12:16:34;17.60;99.90
5775;DHT22;2913;51.120;6.772;2023-05-10T12:19:01;17.70;99.90
5775;DHT22;2913;51.120;6.772;2023-05-10T12:21:28;17.80;99.90
5775;DHT22;2913;51.120;6.772;2023-05-10T12:23:58;17.80;99.90
5775;DHT22;2913;51.120;6.772;2023-05-10T12:26:25;17.60;99.90
5775;DHT22;2913;51.120;6.772;2023-05-10T12:28:55;17.80;99.90
5775;DHT22;2913;51.120;6.772;2023-05-10T12:31:21;17.90;99.90
5775;DHT22;2913;51.120;6.772;2023-05-10T12:33:46;17.90;99.90
5775;DHT22;2913;51.120;6.772;2023-05-10T12:36:15;18.10;99.90
5775;DHT22;2913;51.120;6.772;2023-05-10T12:38:47;18.10;99.90
5775;DHT22;2913;51.120;6.772;2023-05-10T12:41:17;18.20;99.90
5775;DHT22;2913;51.120;6.772;2023-05-10T12:43:43;18.30;99.90
5775;DHT22;2913;51.120;6.772;2023-05-10T12:46:14;18.30;99.90
5775;DHT22;2913;51.120;6.772;2023-05-10T12:48:41;18.20;99.90
5775;DHT22;2913;51.120;6.772;2023-05-10T12:51:07;18.20;99.90
5775;DHT22;2913;51.120;6.772;2023-05-10T12:53:38;18.10;99.90
5775;DHT22;2913;51.120;6.772;2023-05-10T12:56:06;18.00;99.90
5775;DHT22;2913;51.120;6.772;2023-05-10T12:58:34;18.00;99.90
5775;DHT22;2913;51.120;6.772;2023-05-10T13:01:02;18.00;99.90
5775;DHT22;2913;51.120;6.772;2023-05-10T13:03:29;18.00;99.90
5775;DHT22;2913;51.120;6.772;2023-05-10T13:05:54;18.00;99.90
5775;DHT22;2913;51.120;6.772;2023-05-10T13:08:20;17.90;99.90
5775;DHT22;2913;51.120;6.772;2023-05-10T13:10:46;17.90;99.90
5775;DHT22;2913;51.120;6.772;2023-05-10T13:13:11;17.90;99.90
5775;DHT22;2913;51.120;6.772;2023-05-10T13:15:37;17.90;99.90
5775;DHT22;2913;51.120;6.772;2023-05-10T13:18:03;17.90;99.90
5775;DHT22;2913;51.120;6.772;2023-05-10T13:20:29;17.80;99.90
5775;DHT22;2913;51.120;6.772;2023-05-10T13:22:54;17.80;99.90
5775;DHT22;2913;51.120;6.772;2023-05-10T13:25:20;17.50;99.90
5775;DHT22;2913;51.120;6.772;2023-05-10T13:27:45;17.70;99.90
5775;DHT22;2913;51.120;6.772;2023-05-10T13:30:13;17.70;99.90
5775;DHT22;2913;51.120;6.772;2023-05-10T13:32:41;17.80;99.90
5775;DHT22;2913;51.120;6.772;2023-05-10T13:35:07;17.70;99.90
5775;DHT22;2913;51.120;6.772;2023-05-10T13:37:33;17.60;99.90
5775;DHT22;2913;51.120;6.772;2023-05-10T13:40:02;17.40;99.90
5775;DHT22;2913;51.120;6.772;2023-05-10T13:42:29;17.50;99.90
5775;DHT22;2913;51.120;6.772;2023-05-10T13:44:55;17.40;99.90
5775;DHT22;2913;51.120;6.772;2023-05-10T13:47:20;17.40;99.90
5775;DHT22;2913;51.120;6.772;2023-05-10T13:49:49;17.40;99.90
5775;DHT22;2913;51.120;6.772;2023-05-10T13:52:19;17.30;99.90
5775;DHT22;2913;51.120;6.772;2023-05-10T13:54:50;17.20;99.90
5775;DHT22;2913;51.120;6.772;2023-05-10T13:57:20;17.30;99.90
5775;DHT22;2913;51.120;6.772;2023-05-10T13:59:48;17.20;99.90
5775;DHT22;2913;51.120;6.772;2023-05-10T14:02:13;17.20;99.90
5775;DHT22;2913;51.120;6.772;2023-05-10T14:04:39;17.20;99.90
5775;DHT22;2913;51.120;6.772;2023-05-10T14:07:05;17.20;99.90
5775;DHT22;2913;51.120;6.772;2023-05-10T14:09:30;17.20;99.90
5775;DHT22;2913;51.120;6.772;2023-05-10T14:11:56;17.20;99.90
5775;DHT22;2913;51.120;6.772;2023-05-10T14:14:22;17.20;99.90
5775;DHT22;2913;51.120;6.772;2023-05-10T14:16:48;17.20;99.90
5775;DHT22;2913;51.120;6.772;2023-05-10T14:19:14;17.00;99.90
5775;DHT22;2913;51.120;6.772;2023-05-10T14:21:39;17.00;99.90
5775;DHT22;2913;51.120;6.772;2023-05-10T14:24:10;17.00;99.90
5775;DHT22;2913;51.120;6.772;2023-05-10T14:26:38;17.00;99.90
5775;DHT22;2913;51.120;6.772;2023-05-10T14:29:04;17.00;99.90
5775;DHT22;2913;51.120;6.772;2023-05-10T14:31:29;16.90;99.90
5775;DHT22;2913;51.120;6.772;2023-05-10T14:33:59;16.80;99.90
5775;DHT22;2913;51.120;6.772;2023-05-10T14:36:25;16.90;99.90
5775;DHT22;2913;51.120;6.772;2023-05-10T14:38:54;17.00;99.90
5775;DHT22;2913;51.120;6.772;2023-05-10T14:41:22;17.10;99.90
5775;DHT22;2913;51.120;6.772;2023-05-10T14:43:52;17.20;99.90
5775;DHT22;2913;51.120;6.772;2023-05-10T14:46:20;17.30;99.90
5775;DHT22;2913;51.120;6.772;2023-05-10T14:48:48;17.30;99.90
5775;DHT22;2913;51.120;6.772;2023-05-10T14:51:16;17.40;99.90
5775;DHT22;2913;51.120;6.772;2023-05-10T14:53:42;17.60;99.90
5775;DHT22;2913;51.120;6.772;2023-05-10T14:56:08;17.60;99.90
5775;DHT22;2913;51.120;6.772;2023-05-10T14:58:33;17.70;99.90
5775;DHT22;2913;51.120;6.772;2023-05-10T15:01:01;17.70;99.90
5775;DHT22;2913;51.120;6.772;2023-05-10T15:03:27;17.70;99.90
5775;DHT22;2913;51.120;6.772;2023-05-10T15:05:53;17.80;99.90
5775;DHT22;2913;51.120;6.772;2023-05-10T15:08:18;17.80;99.90
5775;DHT22;2913;51.120;6.772;2023-05-10T15:10:44;17.90;99.90
5775;DHT22;2913;51.120;6.772;2023-05-10T15:13:12;18.00;99.90
5775;DHT22;2913;51.120;6.772;2023-05-10T15:15:38;18.00;99.90
5775;DHT22;2913;51.120;6.772;2023-05-10T15:18:03;18.00;99.90
5775;DHT22;2913;51.120;6.772;2023-05-10T15:20:29;18.10;99.90
5775;DHT22;2913;51.120;6.772;2023-05-10T15:22:55;18.10;99.90
5775;DHT22;2913;51.120;6.772;2023-05-10T15:25:22;18.10;99.90
5775;DHT22;2913;51.120;6.772;2023-05-10T15:27:49;18.20;99.90
5775;DHT22;2913;51.120;6.772;2023-05-10T15:30:16;18.20;99.90
5775;DHT22;2913;51.120;6.772;2023-05-10T15:32:42;18.50;99.90
5775;DHT22;2913;51.120;6.772;2023-05-10T15:35:08;18.50;99.90
5775;DHT22;2913;51.120;6.772;2023-05-10T15:37:35;18.60;99.90
5775;DHT22;2913;51.120;6.772;2023-05-10T15:40:04;18.50;99.90
5775;DHT22;2913;51.120;6.772;2023-05-10T15:42:30;18.50;99.90
5775;DHT22;2913;51.120;6.772;2023-05-10T15:44:57;18.70;99.90
5775;DHT22;2913;51.120;6.772;2023-05-10T15:47:23;18.80;99.90
5775;DHT22;2913;51.120;6.772;2023-05-10T15:49:51;18.80;99.90
5775;DHT22;2913;51.120;6.772;2023-05-10T15:52:19;19.00;99.90
5775;DHT22;2913;51.120;6.772;2023-05-10T15:54:45;19.00;99.90
5775;DHT22;2913;51.120;6.772;2023-05-10T15:57:13;19.10;99.90
5775;DHT22;2913;51.120;6.772;2023-05-10T15:59:39;19.00;99.90
5775;DHT22;2913;51.120;6.772;2023-05-10T16:02:05;18.90;99.90
5775;DHT22;2913;51.120;6.772;2023-05-10T16:04:34;18.80;99.90
5775;DHT22;2913;51.120;6.772;2023-05-10T16:07:02;18.70;99.90
5775;DHT22;2913;51.120;6.772;2023-05-10T16:09:28;18.60;99.90
5775;DHT22;2913;51.120;6.772;2023-05-10T16:11:55;18.50;99.90
5775;DHT22;2913;51.120;6.772;2023-05-10T16:14:25;18.50;99.90
5775;DHT22;2913;51.120;6.772;2023-05-10T16:16:51;18.20;99.90
5775;DHT22;2913;51.120;6.772;2023-05-10T16:19:19;18.20;99.90
5775;DHT22;2913;51.120;6.772;2023-05-10T16:21:46;18.20;99.90
5775;DHT22;2913;51.120;6.772;2023-05-10T16:24:11;18.20;99.90
5775;DHT22;2913;51.120;6.772;2023-05-10T16:26:37;18.20;99.90
5775;DHT22;2913;51.120;6.772;2023-05-10T16:29:07;18.20;99.90
5775;DHT22;2913;51.120;6.772;2023-05-10T16:31:35;18.10;99.90
5775;DHT22;2913;51.120;6.772;2023-05-10T16:34:01;18.10;99.90
5775;DHT22;2913;51.120;6.772;2023-05-10T16:36:30;18.00;99.90
5775;DHT22;2913;51.120;6.772;2023-05-10T16:38:58;18.10;99.90
5775;DHT22;2913;51.120;6.772;2023-05-10T16:41:23;18.00;99.90
5775;DHT22;2913;51.120;6.772;2023-05-10T16:43:50;18.10;99.90
5775;DHT22;2913;51.120;6.772;2023-05-10T16:46:18;17.90;99.90
5775;DHT22;2913;51.120;6.772;2023-05-10T16:48:47;17.90;99.90
5775;DHT22;2913;51.120;6.772;2023-05-10T16:51:12;18.00;99.90
5775;DHT22;2913;51.120;6.772;2023-05-10T16:53:38;18.00;99.90
5775;DHT22;2913;51.120;6.772;2023-05-10T16:56:06;18.00;99.90
5775;DHT22;2913;51.120;6.772;2023-05-10T16:58:32;18.10;99.90
5775;DHT22;2913;51.120;6.772;2023-05-10T17:01:00;18.10;99.90
5775;DHT22;2913;51.120;6.772;2023-05-10T17:03:28;18.00;99.90
5775;DHT22;2913;51.120;6.772;2023-05-10T17:05:56;17.90;99.90
5775;DHT22;2913;51.120;6.772;2023-05-10T17:08:23;17.80;99.90
5775;DHT22;2913;51.120;6.772;2023-05-10T17:10:48;17.70;99.90